sensor_id;sensor_type;location;lat;lon;timestamp;temperature;humidity
12413;DHT22;13877;18.896;-99.222;2022-11-15T00:00:56;23.40;63.50
12413;DHT22;13877;18.896;-99.222;2022-11-15T00:03:41;23.20;64.00
12413;DHT22;13877;18.896;-99.222;2022-11-15T00:06:27;23.00;63.90
12413;DHT22;13877;18.896;-99.222;2022-11-15T00:09:12;23.00;63.40
12413;DHT22;13877;18.896;-99.222;2022-11-15T00:11:57;23.00;64.00
12413;DHT22;13877;18.896;-99.222;2022-11-15T00:14:42;22.90;63.40
12413;DHT22;13877;18.896;-99.222;2022-11-15T00:17:27;22.90;64.00
12413;DHT22;13877;18.896;-99.222;2022-11-15T00:20:12;22.80;64.30
12413;DHT22;13877;18.896;-99.222;2022-11-15T00:22:58;22.80;64.90
12413;DHT22;13877;18.896;-99.222;2022-11-15T00:25:43;22.60;64.80
12413;DHT22;13877;18.896;-99.222;2022-11-15T00:28:29;22.60;65.30
12413;DHT22;13877;18.896;-99.222;2022-11-15T00:31:14;22.60;66.20
12413;DHT22;13877;18.896;-99.222;2022-11-15T00:33:59;22.40;67.20
12413;DHT22;13877;18.896;-99.222;2022-11-15T00:36:45;22.10;67.40
12413;DHT22;13877;18.896;-99.222;2022-11-15T00:39:30;22.10;67.40
12413;DHT22;13877;18.896;-99.222;2022-11-15T00:42:15;22.30;67.10
12413;DHT22;13877;18.896;-99.222;2022-11-15T00:45:01;22.40;67.30
12413;DHT22;13877;18.896;-99.222;2022-11-15T00:47:46;22.50;67.80
12413;DHT22;13877;18.896;-99.222;2022-11-15T00:50:33;22.60;68.50
12413;DHT22;13877;18.896;-99.222;2022-11-15T00:53:19;22.30;69.00
12413;DHT22;13877;18.896;-99.222;2022-11-15T00:56:04;22.30;70.30
12413;DHT22;13877;18.896;-99.222;2022-11-15T00:58:49;22.10;70.70
12413;DHT22;13877;18.896;-99.222;2022-11-15T01:01:35;22.00;71.60
12413;DHT22;13877;18.896;-99.222;2022-11-15T01:04:20;22.00;72.10
12413;DHT22;13877;18.896;-99.222;2022-11-15T01:07:06;22.10;72.00
12413;DHT22;13877;18.896;-99.222;2022-11-15T01:09:51;22.10;72.00
12413;DHT22;13877;18.896;-99.222;2022-11-15T01:12:36;22.10;72.60
12413;DHT22;13877;18.896;-99.222;2022-11-15T01:15:21;22.00;72.70
12413;DHT22;13877;18.896;-99.222;2022-11-15T01:18:07;21.90;73.60
12413;DHT22;13877;18.896;-99.222;2022-11-15T01:20:52;21.80;74.20
12413;DHT22;13877;18.896;-99.222;2022-11-15T01:23:38;21.80;74.50
12413;DHT22;13877;18.896;-99.222;2022-11-15T01:26:24;22.00;74.70
12413;DHT22;13877;18.896;-99.222;2022-11-15T01:29:10;21.90;74.70
12413;DHT22;13877;18.896;-99.222;2022-11-15T01:31:55;22.00;75.00
12413;DHT22;13877;18.896;-99.222;2022-11-15T01:34:40;22.00;75.20
12413;DHT22;13877;18.896;-99.222;2022-11-15T01:37:26;21.90;75.10
12413;DHT22;13877;18.896;-99.222;2022-11-15T01:40:12;21.90;75.40
12413;DHT22;13877;18.896;-99.222;2022-11-15T01:42:57;21.90;75.40
12413;DHT22;13877;18.896;-99.222;2022-11-15T01:45:42;21.80;75.10
12413;DHT22;13877;18.896;-99.222;2022-11-15T01:48:33;21.80;75.60
12413;DHT22;13877;18.896;-99.222;2022-11-15T01:51:21;21.80;75.60
12413;DHT22;13877;18.896;-99.222;2022-11-15T01:54:13;21.80;75.60
12413;DHT22;13877;18.896;-99.222;2022-11-15T01:57:08;21.70;75.60
12413;DHT22;13877;18.896;-99.222;2022-11-15T01:59:54;21.70;75.30
12413;DHT22;13877;18.896;-99.222;2022-11-15T02:02:40;21.70;75.70
12413;DHT22;13877;18.896;-99.222;2022-11-15T02:05:26;21.60;75.70
12413;DHT22;13877;18.896;-99.222;2022-11-15T02:08:11;21.60;75.80
12413;DHT22;13877;18.896;-99.222;2022-11-15T02:11:13;21.60;75.40
12413;DHT22;13877;18.896;-99.222;2022-11-15T02:13:59;21.60;75.30
12413;DHT22;13877;18.896;-99.222;2022-11-15T02:32:00;21.50;74.20
12413;DHT22;13877;18.896;-99.222;2022-11-15T02:34:54;21.30;73.90
12413;DHT22;13877;18.896;-99.222;2022-11-15T02:37:58;21.20;74.20
12413;DHT22;13877;18.896;-99.222;2022-11-15T02:40:57;21.10;74.30
12413;DHT22;13877;18.896;-99.222;2022-11-15T02:43:59;21.00;73.30
12413;DHT22;13877;18.896;-99.222;2022-11-15T02:46:57;21.10;73.60
12413;DHT22;13877;18.896;-99.222;2022-11-15T02:50:02;21.10;72.30
12413;DHT22;13877;18.896;-99.222;2022-11-15T02:52:49;21.10;71.20
12413;DHT22;13877;18.896;-99.222;2022-11-15T02:55:41;21.10;70.60
12413;DHT22;13877;18.896;-99.222;2022-11-15T02:58:53;21.20;70.90
12413;DHT22;13877;18.896;-99.222;2022-11-15T03:08:06;21.10;70.50
12413;DHT22;13877;18.896;-99.222;2022-11-15T03:11:04;21.20;70.40
12413;DHT22;13877;18.896;-99.222;2022-11-15T03:14:56;21.20;70.80
12413;DHT22;13877;18.896;-99.222;2022-11-15T03:17:23;21.30;71.00
12413;DHT22;13877;18.896;-99.222;2022-11-15T03:20:10;21.20;71.20
12413;DHT22;13877;18.896;-99.222;2022-11-15T03:23:01;21.30;71.00
12413;DHT22;13877;18.896;-99.222;2022-11-15T03:25:50;21.20;70.90
12413;DHT22;13877;18.896;-99.222;2022-11-15T03:28:49;21.10;71.50
12413;DHT22;13877;18.896;-99.222;2022-11-15T03:31:39;21.00;71.90
12413;DHT22;13877;18.896;-99.222;2022-11-15T03:40:45;21.10;71.10
12413;DHT22;13877;18.896;-99.222;2022-11-15T03:46:56;21.00;70.90
12413;DHT22;13877;18.896;-99.222;2022-11-15T03:49:46;21.00;71.60
12413;DHT22;13877;18.896;-99.222;2022-11-15T03:52:35;20.80;71.70
12413;DHT22;13877;18.896;-99.222;2022-11-15T03:55:21;20.80;71.40
12413;DHT22;13877;18.896;-99.222;2022-11-15T03:58:06;20.70;71.90
12413;DHT22;13877;18.896;-99.222;2022-11-15T04:00:51;20.70;71.50
12413;DHT22;13877;18.896;-99.222;2022-11-15T04:03:37;20.80;71.30
12413;DHT22;13877;18.896;-99.222;2022-11-15T04:06:23;20.70;70.90
12413;DHT22;13877;18.896;-99.222;2022-11-15T04:09:08;20.70;70.00
12413;DHT22;13877;18.896;-99.222;2022-11-15T04:11:53;20.80;70.00
12413;DHT22;13877;18.896;-99.222;2022-11-15T04:14:39;20.80;69.50
12413;DHT22;13877;18.896;-99.222;2022-11-15T04:17:47;20.80;69.90
12413;DHT22;13877;18.896;-99.222;2022-11-15T04:20:32;20.80;69.20
12413;DHT22;13877;18.896;-99.222;2022-11-15T04:23:36;20.70;69.20
12413;DHT22;13877;18.896;-99.222;2022-11-15T04:26:40;20.80;69.70
12413;DHT22;13877;18.896;-99.222;2022-11-15T04:29:26;20.70;69.80
12413;DHT22;13877;18.896;-99.222;2022-11-15T04:32:20;20.60;69.80
12413;DHT22;13877;18.896;-99.222;2022-11-15T04:35:05;20.60;69.90
12413;DHT22;13877;18.896;-99.222;2022-11-15T04:37:52;20.60;70.10
12413;DHT22;13877;18.896;-99.222;2022-11-15T04:40:38;20.60;69.40
12413;DHT22;13877;18.896;-99.222;2022-11-15T04:43:24;20.70;68.20
12413;DHT22;13877;18.896;-99.222;2022-11-15T04:46:09;20.70;67.70
12413;DHT22;13877;18.896;-99.222;2022-11-15T04:48:55;20.70;67.00
12413;DHT22;13877;18.896;-99.222;2022-11-15T04:51:41;20.80;66.40
12413;DHT22;13877;18.896;-99.222;2022-11-15T04:54:26;20.90;66.10
12413;DHT22;13877;18.896;-99.222;2022-11-15T04:57:11;21.00;65.90
12413;DHT22;13877;18.896;-99.222;2022-11-15T04:59:56;20.90;65.80
12413;DHT22;13877;18.896;-99.222;2022-11-15T05:02:42;21.00;65.80
12413;DHT22;13877;18.896;-99.222;2022-11-15T05:05:45;20.90;66.10
12413;DHT22;13877;18.896;-99.222;2022-11-15T05:08:31;20.90;66.60
12413;DHT22;13877;18.896;-99.222;2022-11-15T05:11:17;20.90;66.00
12413;DHT22;13877;18.896;-99.222;2022-11-15T05:14:03;20.80;65.30
12413;DHT22;13877;18.896;-99.222;2022-11-15T05:16:48;20.80;65.00
12413;DHT22;13877;18.896;-99.222;2022-11-15T05:19:33;20.80;64.90
12413;DHT22;13877;18.896;-99.222;2022-11-15T05:22:21;20.80;64.70
12413;DHT22;13877;18.896;-99.222;2022-11-15T05:25:07;20.70;64.80
12413;DHT22;13877;18.896;-99.222;2022-11-15T05:27:53;20.60;65.80
12413;DHT22;13877;18.896;-99.222;2022-11-15T05:30:38;20.50;66.00
12413;DHT22;13877;18.896;-99.222;2022-11-15T05:33:23;20.60;65.50
12413;DHT22;13877;18.896;-99.222;2022-11-15T05:39:05;20.60;64.80
12413;DHT22;13877;18.896;-99.222;2022-11-15T05:42:11;20.60;64.40
12413;DHT22;13877;18.896;-99.222;2022-11-15T05:44:59;20.50;64.70
12413;DHT22;13877;18.896;-99.222;2022-11-15T05:47:45;20.40;64.90
12413;DHT22;13877;18.896;-99.222;2022-11-15T05:50:32;20.40;64.90
12413;DHT22;13877;18.896;-99.222;2022-11-15T05:53:20;20.40;65.80
12413;DHT22;13877;18.896;-99.222;2022-11-15T05:56:09;20.30;66.30
12413;DHT22;13877;18.896;-99.222;2022-11-15T05:58:56;20.20;67.30
12413;DHT22;13877;18.896;-99.222;2022-11-15T06:01:42;20.10;67.60
12413;DHT22;13877;18.896;-99.222;2022-11-15T06:04:28;20.10;68.00
12413;DHT22;13877;18.896;-99.222;2022-11-15T06:07:13;20.10;67.80
12413;DHT22;13877;18.896;-99.222;2022-11-15T06:09:58;20.10;68.30
12413;DHT22;13877;18.896;-99.222;2022-11-15T06:12:44;20.10;68.10
12413;DHT22;13877;18.896;-99.222;2022-11-15T06:15:29;20.00;68.00
12413;DHT22;13877;18.896;-99.222;2022-11-15T06:18:15;20.00;67.90
12413;DHT22;13877;18.896;-99.222;2022-11-15T06:21:00;20.00;68.00
12413;DHT22;13877;18.896;-99.222;2022-11-15T06:23:46;20.00;68.60
12413;DHT22;13877;18.896;-99.222;2022-11-15T06:26:31;20.00;68.40
12413;DHT22;13877;18.896;-99.222;2022-11-15T06:29:17;20.10;68.60
12413;DHT22;13877;18.896;-99.222;2022-11-15T06:32:02;20.00;68.70
12413;DHT22;13877;18.896;-99.222;2022-11-15T06:34:48;20.10;69.10
12413;DHT22;13877;18.896;-99.222;2022-11-15T06:37:34;20.00;69.40
12413;DHT22;13877;18.896;-99.222;2022-11-15T06:40:19;19.90;69.60
12413;DHT22;13877;18.896;-99.222;2022-11-15T06:43:05;19.90;69.30
12413;DHT22;13877;18.896;-99.222;2022-11-15T06:45:51;19.90;68.90
12413;DHT22;13877;18.896;-99.222;2022-11-15T06:48:37;19.90;68.20
12413;DHT22;13877;18.896;-99.222;2022-11-15T06:51:24;19.80;68.00
12413;DHT22;13877;18.896;-99.222;2022-11-15T06:54:09;19.80;67.60
12413;DHT22;13877;18.896;-99.222;2022-11-15T06:56:54;19.80;67.60
12413;DHT22;13877;18.896;-99.222;2022-11-15T06:59:39;19.80;67.30
12413;DHT22;13877;18.896;-99.222;2022-11-15T07:02:25;19.80;67.40
12413;DHT22;13877;18.896;-99.222;2022-11-15T07:05:11;19.80;67.60
12413;DHT22;13877;18.896;-99.222;2022-11-15T07:07:58;19.90;67.50
12413;DHT22;13877;18.896;-99.222;2022-11-15T07:10:43;19.90;67.80
12413;DHT22;13877;18.896;-99.222;2022-11-15T07:13:30;19.90;67.90
12413;DHT22;13877;18.896;-99.222;2022-11-15T07:16:19;19.90;67.80
12413;DHT22;13877;18.896;-99.222;2022-11-15T07:19:05;19.90;67.70
12413;DHT22;13877;18.896;-99.222;2022-11-15T07:21:50;20.00;67.40
12413;DHT22;13877;18.896;-99.222;2022-11-15T07:24:36;20.00;68.20
12413;DHT22;13877;18.896;-99.222;2022-11-15T07:27:21;19.90;68.50
12413;DHT22;13877;18.896;-99.222;2022-11-15T07:30:07;19.80;68.40
12413;DHT22;13877;18.896;-99.222;2022-11-15T07:32:59;19.70;69.20
12413;DHT22;13877;18.896;-99.222;2022-11-15T07:35:44;19.60;69.20
12413;DHT22;13877;18.896;-99.222;2022-11-15T07:38:34;19.50;69.90
12413;DHT22;13877;18.896;-99.222;2022-11-15T07:41:19;19.50;70.20
12413;DHT22;13877;18.896;-99.222;2022-11-15T07:44:05;19.40;70.20
12413;DHT22;13877;18.896;-99.222;2022-11-15T07:46:50;19.40;71.20
12413;DHT22;13877;18.896;-99.222;2022-11-15T07:49:35;19.40;70.50
12413;DHT22;13877;18.896;-99.222;2022-11-15T07:52:21;19.20;70.90
12413;DHT22;13877;18.896;-99.222;2022-11-15T07:55:07;19.00;71.50
12413;DHT22;13877;18.896;-99.222;2022-11-15T07:57:59;19.00;71.70
12413;DHT22;13877;18.896;-99.222;2022-11-15T08:00:45;19.00;72.10
12413;DHT22;13877;18.896;-99.222;2022-11-15T08:03:31;18.90;73.10
12413;DHT22;13877;18.896;-99.222;2022-11-15T08:06:16;18.80;73.50
12413;DHT22;13877;18.896;-99.222;2022-11-15T08:09:01;18.60;73.80
12413;DHT22;13877;18.896;-99.222;2022-11-15T08:11:47;18.50;74.60
12413;DHT22;13877;18.896;-99.222;2022-11-15T08:14:32;18.60;74.30
12413;DHT22;13877;18.896;-99.222;2022-11-15T08:17:17;18.50;75.10
12413;DHT22;13877;18.896;-99.222;2022-11-15T08:20:03;18.40;74.90
12413;DHT22;13877;18.896;-99.222;2022-11-15T08:22:51;18.40;75.10
12413;DHT22;13877;18.896;-99.222;2022-11-15T08:25:37;18.40;75.60
12413;DHT22;13877;18.896;-99.222;2022-11-15T08:28:23;18.30;75.90
12413;DHT22;13877;18.896;-99.222;2022-11-15T08:31:14;18.30;76.30
12413;DHT22;13877;18.896;-99.222;2022-11-15T08:34:01;18.30;76.10
12413;DHT22;13877;18.896;-99.222;2022-11-15T08:36:47;18.40;75.10
12413;DHT22;13877;18.896;-99.222;2022-11-15T08:39:32;18.60;74.40
12413;DHT22;13877;18.896;-99.222;2022-11-15T08:42:17;18.70;74.10
12413;DHT22;13877;18.896;-99.222;2022-11-15T08:45:03;18.70;73.10
12413;DHT22;13877;18.896;-99.222;2022-11-15T08:47:48;18.70;72.90
12413;DHT22;13877;18.896;-99.222;2022-11-15T08:50:34;18.70;72.10
12413;DHT22;13877;18.896;-99.222;2022-11-15T08:53:20;18.70;71.40
12413;DHT22;13877;18.896;-99.222;2022-11-15T08:56:08;18.60;71.20
12413;DHT22;13877;18.896;-99.222;2022-11-15T08:58:54;18.60;70.90
12413;DHT22;13877;18.896;-99.222;2022-11-15T09:01:39;18.70;70.60
12413;DHT22;13877;18.896;-99.222;2022-11-15T09:04:25;18.80;68.50
12413;DHT22;13877;18.896;-99.222;2022-11-15T09:07:11;18.90;66.30
12413;DHT22;13877;18.896;-99.222;2022-11-15T09:09:56;19.10;65.10
12413;DHT22;13877;18.896;-99.222;2022-11-15T09:12:42;19.00;64.30
12413;DHT22;13877;18.896;-99.222;2022-11-15T09:15:28;19.10;64.70
12413;DHT22;13877;18.896;-99.222;2022-11-15T09:18:13;19.00;64.20
12413;DHT22;13877;18.896;-99.222;2022-11-15T09:20:59;19.00;64.50
12413;DHT22;13877;18.896;-99.222;2022-11-15T09:23:45;18.80;64.50
12413;DHT22;13877;18.896;-99.222;2022-11-15T09:26:30;18.70;64.70
12413;DHT22;13877;18.896;-99.222;2022-11-15T09:29:16;18.70;64.00
12413;DHT22;13877;18.896;-99.222;2022-11-15T09:32:02;18.70;63.50
12413;DHT22;13877;18.896;-99.222;2022-11-15T09:34:47;18.60;63.60
12413;DHT22;13877;18.896;-99.222;2022-11-15T09:37:33;18.60;63.80
12413;DHT22;13877;18.896;-99.222;2022-11-15T09:40:19;18.50;63.60
12413;DHT22;13877;18.896;-99.222;2022-11-15T09:43:32;18.50;63.00
12413;DHT22;13877;18.896;-99.222;2022-11-15T09:46:45;18.50;63.30
12413;DHT22;13877;18.896;-99.222;2022-11-15T09:49:42;18.50;63.50
12413;DHT22;13877;18.896;-99.222;2022-11-15T09:52:23;18.40;63.50
12413;DHT22;13877;18.896;-99.222;2022-11-15T09:54:51;18.40;64.00
12413;DHT22;13877;18.896;-99.222;2022-11-15T09:57:38;18.40;64.10
12413;DHT22;13877;18.896;-99.222;2022-11-15T10:05:20;18.40;65.50
12413;DHT22;13877;18.896;-99.222;2022-11-15T10:11:01;18.40;65.40
12413;DHT22;13877;18.896;-99.222;2022-11-15T10:13:32;18.60;64.60
12413;DHT22;13877;18.896;-99.222;2022-11-15T10:20:00;18.60;65.10
12413;DHT22;13877;18.896;-99.222;2022-11-15T10:24:44;18.40;64.70
12413;DHT22;13877;18.896;-99.222;2022-11-15T10:27:16;18.40;64.90
12413;DHT22;13877;18.896;-99.222;2022-11-15T10:29:48;18.30;64.70
12413;DHT22;13877;18.896;-99.222;2022-11-15T10:32:20;18.30;64.70
12413;DHT22;13877;18.896;-99.222;2022-11-15T10:34:49;18.30;65.10
12413;DHT22;13877;18.896;-99.222;2022-11-15T10:37:31;18.30;65.10
12413;DHT22;13877;18.896;-99.222;2022-11-15T10:40:13;18.40;65.30
12413;DHT22;13877;18.896;-99.222;2022-11-15T10:42:41;18.40;64.40
12413;DHT22;13877;18.896;-99.222;2022-11-15T10:45:29;18.50;64.30
12413;DHT22;13877;18.896;-99.222;2022-11-15T10:48:20;18.50;64.20
12413;DHT22;13877;18.896;-99.222;2022-11-15T10:50:50;18.40;64.40
12413;DHT22;13877;18.896;-99.222;2022-11-15T10:56:00;18.30;64.40
12413;DHT22;13877;18.896;-99.222;2022-11-15T10:58:34;18.30;64.30
12413;DHT22;13877;18.896;-99.222;2022-11-15T11:01:24;18.30;64.50
12413;DHT22;13877;18.896;-99.222;2022-11-15T11:04:06;18.20;65.30
12413;DHT22;13877;18.896;-99.222;2022-11-15T11:07:19;18.10;65.00
12413;DHT22;13877;18.896;-99.222;2022-11-15T11:09:59;18.00;65.00
12413;DHT22;13877;18.896;-99.222;2022-11-15T11:12:32;18.00;64.30
12413;DHT22;13877;18.896;-99.222;2022-11-15T11:15:01;18.00;64.30
12413;DHT22;13877;18.896;-99.222;2022-11-15T11:20:33;17.90;64.00
12413;DHT22;13877;18.896;-99.222;2022-11-15T11:23:36;18.10;64.60
12413;DHT22;13877;18.896;-99.222;2022-11-15T11:26:29;17.90;65.40
12413;DHT22;13877;18.896;-99.222;2022-11-15T11:32:40;17.40;67.80
12413;DHT22;13877;18.896;-99.222;2022-11-15T11:35:28;17.00;69.10
12413;DHT22;13877;18.896;-99.222;2022-11-15T11:38:04;16.60;70.50
12413;DHT22;13877;18.896;-99.222;2022-11-15T11:41:04;16.40;70.90
12413;DHT22;13877;18.896;-99.222;2022-11-15T11:49:27;16.70;70.50
12413;DHT22;13877;18.896;-99.222;2022-11-15T11:52:01;16.60;70.70
12413;DHT22;13877;18.896;-99.222;2022-11-15T11:57:23;16.40;70.90
12413;DHT22;13877;18.896;-99.222;2022-11-15T12:00:12;16.40;71.00
12413;DHT22;13877;18.896;-99.222;2022-11-15T12:05:40;16.50;72.50
12413;DHT22;13877;18.896;-99.222;2022-11-15T12:09:04;16.40;72.10
12413;DHT22;13877;18.896;-99.222;2022-11-15T12:17:02;16.70;71.10
12413;DHT22;13877;18.896;-99.222;2022-11-15T12:19:29;16.80;71.00
12413;DHT22;13877;18.896;-99.222;2022-11-15T12:22:02;16.80;70.80
12413;DHT22;13877;18.896;-99.222;2022-11-15T12:24:37;16.80;70.80
12413;DHT22;13877;18.896;-99.222;2022-11-15T12:27:19;16.80;71.10
12413;DHT22;13877;18.896;-99.222;2022-11-15T12:29:56;16.80;71.40
12413;DHT22;13877;18.896;-99.222;2022-11-15T12:32:34;16.80;71.50
12413;DHT22;13877;18.896;-99.222;2022-11-15T12:35:05;16.80;71.30
12413;DHT22;13877;18.896;-99.222;2022-11-15T12:42:41;16.90;70.90
12413;DHT22;13877;18.896;-99.222;2022-11-15T12:45:39;17.00;70.80
12413;DHT22;13877;18.896;-99.222;2022-11-15T12:53:26;17.40;69.20
12413;DHT22;13877;18.896;-99.222;2022-11-15T12:58:59;17.40;68.30
12413;DHT22;13877;18.896;-99.222;2022-11-15T13:07:07;17.50;68.50
12413;DHT22;13877;18.896;-99.222;2022-11-15T13:09:55;17.50;69.00
12413;DHT22;13877;18.896;-99.222;2022-11-15T13:14:56;17.60;69.40
12413;DHT22;13877;18.896;-99.222;2022-11-15T13:17:29;17.70;69.10
12413;DHT22;13877;18.896;-99.222;2022-11-15T13:28:18;18.10;68.90
12413;DHT22;13877;18.896;-99.222;2022-11-15T13:30:57;18.10;68.30
12413;DHT22;13877;18.896;-99.222;2022-11-15T13:33:36;18.40;67.90
12413;DHT22;13877;18.896;-99.222;2022-11-15T13:36:08;18.70;66.90
12413;DHT22;13877;18.896;-99.222;2022-11-15T13:38:41;19.00;65.60
12413;DHT22;13877;18.896;-99.222;2022-11-15T13:41:21;19.40;65.40
12413;DHT22;13877;18.896;-99.222;2022-11-15T13:43:50;19.60;64.90
12413;DHT22;13877;18.896;-99.222;2022-11-15T13:46:22;19.90;64.20
12413;DHT22;13877;18.896;-99.222;2022-11-15T13:48:59;20.10;63.70
12413;DHT22;13877;18.896;-99.222;2022-11-15T13:54:09;20.60;63.10
12413;DHT22;13877;18.896;-99.222;2022-11-15T13:56:45;20.90;62.50
12413;DHT22;13877;18.896;-99.222;2022-11-15T13:59:34;21.20;62.50
12413;DHT22;13877;18.896;-99.222;2022-11-15T14:02:14;21.50;62.20
12413;DHT22;13877;18.896;-99.222;2022-11-15T14:04:58;21.70;60.80
12413;DHT22;13877;18.896;-99.222;2022-11-15T14:07:27;22.00;60.90
12413;DHT22;13877;18.896;-99.222;2022-11-15T14:10:24;22.30;60.50
12413;DHT22;13877;18.896;-99.222;2022-11-15T14:12:52;22.50;60.00
12413;DHT22;13877;18.896;-99.222;2022-11-15T14:15:31;22.90;60.70
12413;DHT22;13877;18.896;-99.222;2022-11-15T14:17:59;22.90;60.00
12413;DHT22;13877;18.896;-99.222;2022-11-15T14:20:32;23.00;61.20
12413;DHT22;13877;18.896;-99.222;2022-11-15T14:23:46;23.00;61.70
12413;DHT22;13877;18.896;-99.222;2022-11-15T14:25:57;23.20;61.90
12413;DHT22;13877;18.896;-99.222;2022-11-15T14:30:52;23.80;63.20
12413;DHT22;13877;18.896;-99.222;2022-11-15T14:33:22;23.60;61.80
12413;DHT22;13877;18.896;-99.222;2022-11-15T14:35:50;23.30;63.10
12413;DHT22;13877;18.896;-99.222;2022-11-15T14:38:17;23.40;63.50
12413;DHT22;13877;18.896;-99.222;2022-11-15T14:40:44;23.60;63.30
12413;DHT22;13877;18.896;-99.222;2022-11-15T14:43:12;23.60;65.10
12413;DHT22;13877;18.896;-99.222;2022-11-15T14:45:39;23.60;66.30
12413;DHT22;13877;18.896;-99.222;2022-11-15T14:48:07;23.90;67.00
12413;DHT22;13877;18.896;-99.222;2022-11-15T14:50:34;23.70;66.80
12413;DHT22;13877;18.896;-99.222;2022-11-15T14:53:02;23.90;66.90
12413;DHT22;13877;18.896;-99.222;2022-11-15T14:55:32;23.90;65.90
12413;DHT22;13877;18.896;-99.222;2022-11-15T14:58:03;23.70;66.20
12413;DHT22;13877;18.896;-99.222;2022-11-15T15:00:31;23.80;66.00
12413;DHT22;13877;18.896;-99.222;2022-11-15T15:02:59;24.00;66.10
12413;DHT22;13877;18.896;-99.222;2022-11-15T15:05:31;24.80;65.30
12413;DHT22;13877;18.896;-99.222;2022-11-15T15:07:59;24.70;66.10
12413;DHT22;13877;18.896;-99.222;2022-11-15T15:10:39;24.60;66.10
12413;DHT22;13877;18.896;-99.222;2022-11-15T15:13:25;24.60;65.70
12413;DHT22;13877;18.896;-99.222;2022-11-15T15:15:52;24.20;66.00
12413;DHT22;13877;18.896;-99.222;2022-11-15T15:18:20;24.10;66.10
12413;DHT22;13877;18.896;-99.222;2022-11-15T15:20:54;24.10;66.10
12413;DHT22;13877;18.896;-99.222;2022-11-15T15:23:23;24.20;65.40
12413;DHT22;13877;18.896;-99.222;2022-11-15T15:25:51;24.10;66.00
12413;DHT22;13877;18.896;-99.222;2022-11-15T15:28:19;24.60;65.00
12413;DHT22;13877;18.896;-99.222;2022-11-15T15:30:46;24.80;64.20
12413;DHT22;13877;18.896;-99.222;2022-11-15T15:33:13;24.90;63.80
12413;DHT22;13877;18.896;-99.222;2022-11-15T15:35:40;25.00;64.20
12413;DHT22;13877;18.896;-99.222;2022-11-15T15:38:12;25.20;63.70
12413;DHT22;13877;18.896;-99.222;2022-11-15T15:40:39;25.00;64.20
12413;DHT22;13877;18.896;-99.222;2022-11-15T15:43:06;25.30;64.70
12413;DHT22;13877;18.896;-99.222;2022-11-15T15:45:38;25.60;62.70
12413;DHT22;13877;18.896;-99.222;2022-11-15T15:48:05;25.80;61.60
12413;DHT22;13877;18.896;-99.222;2022-11-15T15:50:34;25.90;60.90
12413;DHT22;13877;18.896;-99.222;2022-11-15T15:53:02;25.70;61.80
12413;DHT22;13877;18.896;-99.222;2022-11-15T15:55:31;25.60;61.30
12413;DHT22;13877;18.896;-99.222;2022-11-15T15:57:58;26.00;60.20
12413;DHT22;13877;18.896;-99.222;2022-11-15T16:00:25;26.00;60.80
12413;DHT22;13877;18.896;-99.222;2022-11-15T16:02:53;25.80;61.40
12413;DHT22;13877;18.896;-99.222;2022-11-15T16:05:20;25.70;63.00
12413;DHT22;13877;18.896;-99.222;2022-11-15T16:07:47;25.70;61.60
12413;DHT22;13877;18.896;-99.222;2022-11-15T16:10:21;25.90;61.00
12413;DHT22;13877;18.896;-99.222;2022-11-15T16:12:49;25.90;61.10
12413;DHT22;13877;18.896;-99.222;2022-11-15T16:15:15;26.20;61.20
12413;DHT22;13877;18.896;-99.222;2022-11-15T16:17:52;26.30;60.40
12413;DHT22;13877;18.896;-99.222;2022-11-15T16:20:40;26.30;59.40
12413;DHT22;13877;18.896;-99.222;2022-11-15T16:23:14;26.60;59.00
12413;DHT22;13877;18.896;-99.222;2022-11-15T16:25:53;26.80;58.80
12413;DHT22;13877;18.896;-99.222;2022-11-15T16:28:22;26.70;59.30
12413;DHT22;13877;18.896;-99.222;2022-11-15T16:30:59;26.70;59.10
12413;DHT22;13877;18.896;-99.222;2022-11-15T16:33:26;26.70;60.70
12413;DHT22;13877;18.896;-99.222;2022-11-15T16:35:53;26.10;61.90
12413;DHT22;13877;18.896;-99.222;2022-11-15T16:38:20;26.20;62.30
12413;DHT22;13877;18.896;-99.222;2022-11-15T16:40:47;26.50;61.30
12413;DHT22;13877;18.896;-99.222;2022-11-15T16:43:14;26.80;62.00
12413;DHT22;13877;18.896;-99.222;2022-11-15T16:45:41;27.40;59.10
12413;DHT22;13877;18.896;-99.222;2022-11-15T16:48:23;27.70;59.20
12413;DHT22;13877;18.896;-99.222;2022-11-15T16:50:54;28.30;58.90
12413;DHT22;13877;18.896;-99.222;2022-11-15T16:53:23;27.60;58.10
12413;DHT22;13877;18.896;-99.222;2022-11-15T16:55:50;27.30;59.60
12413;DHT22;13877;18.896;-99.222;2022-11-15T16:58:17;27.80;59.70
12413;DHT22;13877;18.896;-99.222;2022-11-15T17:00:44;27.20;59.00
12413;DHT22;13877;18.896;-99.222;2022-11-15T17:03:12;27.60;59.70
12413;DHT22;13877;18.896;-99.222;2022-11-15T17:05:39;27.40;59.70
12413;DHT22;13877;18.896;-99.222;2022-11-15T17:08:06;27.30;59.40
12413;DHT22;13877;18.896;-99.222;2022-11-15T17:10:34;27.90;58.70
12413;DHT22;13877;18.896;-99.222;2022-11-15T17:13:04;28.30;57.60
12413;DHT22;13877;18.896;-99.222;2022-11-15T17:15:31;28.40;56.70
12413;DHT22;13877;18.896;-99.222;2022-11-15T17:17:58;28.10;58.80
12413;DHT22;13877;18.896;-99.222;2022-11-15T17:20:25;28.20;57.10
12413;DHT22;13877;18.896;-99.222;2022-11-15T17:22:53;28.40;56.10
12413;DHT22;13877;18.896;-99.222;2022-11-15T17:25:19;28.00;58.10
12413;DHT22;13877;18.896;-99.222;2022-11-15T17:27:46;28.10;57.20
12413;DHT22;13877;18.896;-99.222;2022-11-15T17:30:14;28.50;56.50
12413;DHT22;13877;18.896;-99.222;2022-11-15T17:32:42;28.30;56.80
12413;DHT22;13877;18.896;-99.222;2022-11-15T17:35:11;28.20;57.20
12413;DHT22;13877;18.896;-99.222;2022-11-15T17:37:39;27.90;59.10
12413;DHT22;13877;18.896;-99.222;2022-11-15T17:40:06;28.40;58.30
12413;DHT22;13877;18.896;-99.222;2022-11-15T17:42:33;28.30;59.20
12413;DHT22;13877;18.896;-99.222;2022-11-15T17:45:00;28.80;56.70
12413;DHT22;13877;18.896;-99.222;2022-11-15T17:47:27;29.10;55.10
12413;DHT22;13877;18.896;-99.222;2022-11-15T17:49:54;29.00;55.60
12413;DHT22;13877;18.896;-99.222;2022-11-15T17:52:21;29.60;55.20
12413;DHT22;13877;18.896;-99.222;2022-11-15T17:54:48;29.80;56.60
12413;DHT22;13877;18.896;-99.222;2022-11-15T17:57:15;29.00;56.10
12413;DHT22;13877;18.896;-99.222;2022-11-15T17:59:42;28.70;57.50
12413;DHT22;13877;18.896;-99.222;2022-11-15T18:02:09;29.10;56.40
12413;DHT22;13877;18.896;-99.222;2022-11-15T18:04:36;28.80;55.70
12413;DHT22;13877;18.896;-99.222;2022-11-15T18:07:03;29.10;55.60
12413;DHT22;13877;18.896;-99.222;2022-11-15T18:09:29;29.30;54.70
12413;DHT22;13877;18.896;-99.222;2022-11-15T18:11:56;29.40;53.70
12413;DHT22;13877;18.896;-99.222;2022-11-15T18:14:23;29.50;53.70
12413;DHT22;13877;18.896;-99.222;2022-11-15T18:16:52;29.40;54.80